createdAt,value
2023-03-31T00:00:44.104Z,2.92
2023-03-31T00:03:47.526Z,3.53
2023-03-31T00:06:54.700Z,3.87
2023-03-31T00:10:16.637Z,3.37
2023-03-31T00:13:21.345Z,3.50
2023-03-31T00:16:24.624Z,2.72
2023-03-31T00:19:29.197Z,3.10
2023-03-31T00:22:32.209Z,3.00
2023-03-31T00:25:35.648Z,3.07
2023-03-31T00:28:39.138Z,2.83
2023-03-31T00:31:42.403Z,3.45
2023-03-31T00:38:22.209Z,2.93
2023-03-31T00:41:27.985Z,3.30
2023-03-31T00:44:34.496Z,3.63
2023-03-31T00:47:38.179Z,3.33
2023-03-31T00:50:52.914Z,3.67
2023-03-31T00:54:05.078Z,3.42
2023-03-31T00:57:28.879Z,2.93
2023-03-31T01:00:31.988Z,3.65
2023-03-31T01:03:35.779Z,3.00
2023-03-31T01:06:47.156Z,3.17
2023-03-31T01:10:11.427Z,3.30
2023-03-31T01:13:16.669Z,3.40
2023-03-31T01:16:20.047Z,3.20
2023-03-31T01:19:47.889Z,2.90
2023-03-31T01:23:35.680Z,2.85
2023-03-31T01:26:44.857Z,3.30
2023-03-31T01:30:07.266Z,2.30
2023-03-31T01:33:32.003Z,2.58
2023-03-31T01:41:06.041Z,2.42
2023-03-31T01:44:22.739Z,2.87
2023-03-31T01:47:40.921Z,2.13
2023-03-31T01:54:40.785Z,2.45
2023-03-31T01:58:22.724Z,2.72
2023-03-31T02:01:37.488Z,2.72
2023-03-31T02:04:46.873Z,3.07
2023-03-31T02:07:55.870Z,2.15
2023-03-31T02:11:01.367Z,1.88
2023-03-31T02:14:10.956Z,3.13
2023-03-31T02:17:21.296Z,2.38
2023-03-31T02:20:26.036Z,2.90
2023-03-31T02:23:32.151Z,2.70
2023-03-31T02:26:44.654Z,2.33
2023-03-31T02:30:07.923Z,2.60
2023-03-31T02:33:29.639Z,2.20
2023-03-31T02:36:35.588Z,2.90
2023-03-31T02:39:41.908Z,2.22
2023-03-31T02:42:45.881Z,2.22
2023-03-31T02:45:51.763Z,2.97
2023-03-31T02:49:14.585Z,2.37
2023-03-31T02:52:50.717Z,2.47
2023-03-31T02:56:27.750Z,2.65
2023-03-31T03:00:09.790Z,2.97
2023-03-31T03:04:18.530Z,2.25
2023-03-31T03:07:37.920Z,2.60
2023-03-31T03:10:44.099Z,2.30
2023-03-31T03:14:00.813Z,2.65
2023-03-31T03:17:19.479Z,2.30
2023-03-31T03:20:22.887Z,2.33
2023-03-31T03:23:26.036Z,2.43
2023-03-31T03:26:29.494Z,1.90
2023-03-31T03:29:33.059Z,2.45
2023-03-31T03:32:39.502Z,2.22
2023-03-31T03:35:45.426Z,2.03
2023-03-31T03:38:48.785Z,1.93
2023-03-31T03:45:09.829Z,2.72
2023-03-31T03:48:13.059Z,2.60
2023-03-31T03:51:16.324Z,2.22
2023-03-31T03:54:20.255Z,2.90
2023-03-31T03:57:23.572Z,1.70
2023-03-31T04:00:27.066Z,2.15
2023-03-31T04:03:31.164Z,2.25
2023-03-31T04:06:34.903Z,2.10
2023-03-31T04:09:38.312Z,2.47
2023-03-31T04:12:41.501Z,3.10
2023-03-31T04:15:45.455Z,2.42
2023-03-31T04:18:56.856Z,3.03
2023-03-31T04:22:02.982Z,2.30
2023-03-31T04:25:18.021Z,2.10
2023-03-31T04:28:24.133Z,2.50
2023-03-31T04:31:27.845Z,2.60
2023-03-31T04:34:36.554Z,2.40
2023-03-31T04:37:39.799Z,2.42
2023-03-31T04:40:42.833Z,2.50
2023-03-31T04:43:46.122Z,2.17
2023-03-31T04:46:49.701Z,2.50
2023-03-31T04:49:53.513Z,2.85
2023-03-31T04:52:56.388Z,2.17
2023-03-31T04:55:59.393Z,2.67
2023-03-31T04:59:04.162Z,3.30
2023-03-31T05:02:07.019Z,3.58
2023-03-31T05:05:11.232Z,3.13
2023-03-31T05:08:14.599Z,3.13
2023-03-31T05:11:17.772Z,2.67
2023-03-31T05:14:21.166Z,2.57
2023-03-31T05:17:24.288Z,2.55
2023-03-31T05:20:27.561Z,2.30
2023-03-31T05:23:31.052Z,2.22
2023-03-31T05:26:34.297Z,2.15
2023-03-31T05:29:37.790Z,2.43
2023-03-31T05:32:41.546Z,2.00
2023-03-31T05:35:45.012Z,2.28
2023-03-31T05:38:48.329Z,1.90
2023-03-31T05:41:51.261Z,2.08
2023-03-31T05:44:54.300Z,1.77
2023-03-31T05:47:57.363Z,2.17
2023-03-31T05:51:01.974Z,1.88
2023-03-31T05:54:23.733Z,1.95
2023-03-31T05:57:27.058Z,1.73
2023-03-31T06:00:31.657Z,1.60
2023-03-31T06:03:41.500Z,1.77
2023-03-31T06:06:46.305Z,1.48
2023-03-31T06:09:49.767Z,1.75
2023-03-31T06:12:53.066Z,1.90
2023-03-31T06:15:57.947Z,1.50
2023-03-31T06:19:20.025Z,1.40
2023-03-31T06:22:23.234Z,2.22
2023-03-31T06:25:26.240Z,1.83
2023-03-31T06:28:29.855Z,2.17
2023-03-31T06:31:33.051Z,1.90
2023-03-31T06:34:36.575Z,1.70
2023-03-31T06:37:40.004Z,1.40
2023-03-31T06:40:43.237Z,1.58
2023-03-31T06:43:46.905Z,1.75
2023-03-31T06:46:50.571Z,2.00
2023-03-31T06:49:53.646Z,2.13
2023-03-31T06:52:56.875Z,1.55
2023-03-31T06:56:00.407Z,1.58
2023-03-31T06:59:03.549Z,1.65
2023-03-31T07:02:07.176Z,1.90
2023-03-31T07:05:11.129Z,2.35
2023-03-31T07:08:14.283Z,2.05
2023-03-31T07:11:20.688Z,2.25
2023-03-31T07:14:24.584Z,1.60
2023-03-31T07:17:28.170Z,1.80
2023-03-31T07:20:32.802Z,1.83
2023-03-31T07:23:36.276Z,1.85
2023-03-31T07:26:39.513Z,2.03
2023-03-31T07:29:42.540Z,2.03
2023-03-31T07:32:51.511Z,1.90
2023-03-31T07:36:08.325Z,2.35
2023-03-31T07:39:14.542Z,2.38
2023-03-31T07:42:17.847Z,2.25
2023-03-31T07:45:22.689Z,2.20
2023-03-31T07:48:29.117Z,2.07
2023-03-31T07:51:32.280Z,2.63
2023-03-31T07:54:36.179Z,2.45
2023-03-31T07:57:40.559Z,1.98
2023-03-31T08:00:43.967Z,2.20
2023-03-31T08:03:48.892Z,1.60
2023-03-31T08:06:52.320Z,2.05
2023-03-31T08:09:55.993Z,2.17
2023-03-31T08:12:59.461Z,2.42
2023-03-31T08:16:03.620Z,1.90
2023-03-31T08:19:07.532Z,2.13
2023-03-31T08:22:11.223Z,1.90
2023-03-31T08:25:14.566Z,1.77
2023-03-31T08:28:17.720Z,2.05
2023-03-31T08:31:25.982Z,1.67
2023-03-31T08:34:30.425Z,1.67
2023-03-31T08:37:33.753Z,1.90
2023-03-31T08:40:43.866Z,1.45
2023-03-31T08:43:49.298Z,1.67
2023-03-31T08:46:55.726Z,2.17
2023-03-31T08:50:06.001Z,1.50
2023-03-31T08:53:44.004Z,1.45
2023-03-31T08:56:50.346Z,2.08
2023-03-31T08:59:58.529Z,1.80
2023-03-31T09:03:22.870Z,1.40
2023-03-31T09:06:38.756Z,1.70
2023-03-31T09:09:56.483Z,1.10
2023-03-31T09:13:11.671Z,1.60
2023-03-31T09:16:35.340Z,2.03
2023-03-31T09:20:19.502Z,1.38
2023-03-31T09:23:35.833Z,1.40
2023-03-31T09:26:55.532Z,1.60
2023-03-31T09:30:01.642Z,1.95
2023-03-31T09:33:16.383Z,1.75
2023-03-31T09:36:24.922Z,1.58
2023-03-31T09:39:28.523Z,1.77
2023-03-31T09:42:31.801Z,1.50
2023-03-31T09:45:35.896Z,1.52
2023-03-31T09:48:42.460Z,1.50
2023-03-31T09:51:49.378Z,1.52
2023-03-31T09:54:55.998Z,1.70
2023-03-31T09:58:01.945Z,1.38
2023-03-31T10:01:12.524Z,1.20
2023-03-31T10:04:28.675Z,1.48
2023-03-31T10:07:33.152Z,1.55
2023-03-31T10:10:36.281Z,1.17
2023-03-31T10:14:07.683Z,1.60
2023-03-31T10:17:19.802Z,1.45
2023-03-31T10:20:37.699Z,1.38
2023-03-31T10:23:47.291Z,1.40
2023-03-31T10:26:54.281Z,1.43
2023-03-31T10:30:00.590Z,1.35
2023-03-31T10:33:23.232Z,1.30
2023-03-31T10:36:29.366Z,1.52
2023-03-31T10:39:35.769Z,1.73
2023-03-31T10:42:39.254Z,1.57
2023-03-31T10:46:00.914Z,1.30
2023-03-31T10:49:27.280Z,1.50
2023-03-31T10:52:43.057Z,1.30
2023-03-31T10:56:08.112Z,1.50
2023-03-31T10:59:36.485Z,1.80
2023-03-31T11:03:00.124Z,1.17
2023-03-31T11:06:18.741Z,1.35
2023-03-31T11:09:33.997Z,1.17
2023-03-31T11:13:03.452Z,1.23
2023-03-31T11:16:34.261Z,1.20
2023-03-31T11:20:03.387Z,1.17
2023-03-31T11:23:12.649Z,1.20
2023-03-31T11:26:47.830Z,1.15
2023-03-31T11:30:04.549Z,1.60
2023-03-31T11:33:39.665Z,1.10
2023-03-31T11:36:45.842Z,1.50
2023-03-31T11:39:55.059Z,1.30
2023-03-31T11:43:11.550Z,1.75
2023-03-31T11:46:40.213Z,1.50
2023-03-31T11:49:56.179Z,1.27
2023-03-31T11:53:08.040Z,1.40
2023-03-31T11:56:12.907Z,1.50
2023-03-31T11:59:19.880Z,2.00
2023-03-31T12:02:56.174Z,1.70
2023-03-31T12:06:06.592Z,1.23
2023-03-31T12:09:48.396Z,1.40
2023-03-31T12:13:28.889Z,2.15
2023-03-31T12:16:51.848Z,1.27
2023-03-31T12:20:12.290Z,1.70
2023-03-31T12:23:20.181Z,1.37
2023-03-31T12:26:31.345Z,1.90
2023-03-31T12:29:40.166Z,1.90
2023-03-31T12:32:53.667Z,1.65
2023-03-31T12:36:27.259Z,1.55
2023-03-31T12:39:51.901Z,1.60
2023-03-31T12:43:12.081Z,1.25
2023-03-31T12:46:37.383Z,1.58
2023-03-31T12:50:08.754Z,1.52
2023-03-31T12:53:42.495Z,1.70
2023-03-31T12:57:03.993Z,1.40
2023-03-31T13:00:26.701Z,1.60
2023-03-31T13:03:35.643Z,1.60
2023-03-31T13:06:38.952Z,1.95
2023-03-31T13:09:44.893Z,2.45
2023-03-31T13:13:16.328Z,1.37
2023-03-31T13:16:21.266Z,1.70
2023-03-31T13:19:28.542Z,1.73
2023-03-31T13:22:33.290Z,1.80
2023-03-31T13:25:39.264Z,1.33
2023-03-31T13:28:44.080Z,1.60
2023-03-31T13:32:02.986Z,1.58
2023-03-31T13:35:18.039Z,1.45
2023-03-31T13:38:42.977Z,1.60
2023-03-31T13:42:23.235Z,1.35
2023-03-31T13:46:00.534Z,1.87
2023-03-31T13:49:47.048Z,1.60
2023-03-31T13:53:06.830Z,1.80
2023-03-31T13:56:19.595Z,1.75
2023-03-31T13:59:38.887Z,1.70
2023-03-31T14:03:04.722Z,1.40
2023-03-31T14:06:33.639Z,1.58
2023-03-31T14:09:49.826Z,1.83
2023-03-31T14:13:04.181Z,1.30
2023-03-31T14:16:09.320Z,1.90
2023-03-31T14:19:18.439Z,1.53
2023-03-31T14:22:52.010Z,1.60
2023-03-31T14:25:57.908Z,2.15
2023-03-31T14:29:21.450Z,2.22
2023-03-31T14:32:41.457Z,1.75
2023-03-31T14:36:08.328Z,2.10
2023-03-31T14:39:13.186Z,1.42
2023-03-31T14:42:27.267Z,1.30
2023-03-31T14:45:32.077Z,1.38
2023-03-31T14:48:45.373Z,1.67
2023-03-31T14:51:51.421Z,1.63
2023-03-31T14:54:54.916Z,1.30
2023-03-31T14:58:00.918Z,1.48
2023-03-31T15:01:07.146Z,1.92
2023-03-31T15:04:14.218Z,1.60
2023-03-31T15:07:18.155Z,1.40
2023-03-31T15:10:22.318Z,1.45
2023-03-31T15:13:34.930Z,2.03
2023-03-31T15:16:42.768Z,1.52
2023-03-31T15:19:46.638Z,1.55
2023-03-31T15:22:50.009Z,1.10
2023-03-31T15:26:02.057Z,1.33
2023-03-31T15:29:15.724Z,2.08
2023-03-31T15:32:27.206Z,1.60
2023-03-31T15:35:36.352Z,1.83
2023-03-31T15:38:40.488Z,1.47
2023-03-31T15:41:48.469Z,2.10
2023-03-31T15:45:14.994Z,1.70
2023-03-31T15:48:24.176Z,1.52
2023-03-31T15:51:37.413Z,1.92
2023-03-31T15:54:45.095Z,2.20
2023-03-31T15:57:48.176Z,2.08
2023-03-31T16:00:53.429Z,1.45
2023-03-31T16:03:57.740Z,1.73
2023-03-31T16:07:15.600Z,1.90
2023-03-31T16:10:23.277Z,1.53
2023-03-31T16:13:30.996Z,1.85
2023-03-31T16:16:34.797Z,1.75
2023-03-31T16:19:49.750Z,1.92
2023-03-31T16:22:58.807Z,2.15
2023-03-31T16:26:01.998Z,2.40
2023-03-31T16:29:05.696Z,2.00
2023-03-31T16:32:17.423Z,1.70
2023-03-31T16:35:20.440Z,2.00
2023-03-31T16:38:28.911Z,2.10
2023-03-31T16:41:33.913Z,1.90
2023-03-31T16:44:36.990Z,1.90
2023-03-31T16:47:43.613Z,2.00
2023-03-31T16:50:51.528Z,1.67
2023-03-31T16:53:57.539Z,1.95
2023-03-31T16:57:02.284Z,1.70
2023-03-31T17:00:06.344Z,2.30
2023-03-31T17:03:10.520Z,1.70
2023-03-31T17:06:13.874Z,1.90
2023-03-31T17:09:16.685Z,1.60
2023-03-31T17:12:20.070Z,2.30
2023-03-31T17:15:23.693Z,1.58
2023-03-31T17:18:27.336Z,2.67
2023-03-31T17:21:30.932Z,2.22
2023-03-31T17:24:33.910Z,2.00
2023-03-31T17:27:37.822Z,2.00
2023-03-31T17:30:44.373Z,2.50
2023-03-31T17:33:48.535Z,2.20
2023-03-31T17:36:54.837Z,1.92
2023-03-31T17:39:58.484Z,1.90
2023-03-31T17:43:03.157Z,1.53
2023-03-31T17:46:13.591Z,1.90
2023-03-31T17:49:17.648Z,2.03
2023-03-31T17:52:21.088Z,2.17
2023-03-31T17:55:24.967Z,1.85
2023-03-31T17:58:28.478Z,2.20
2023-03-31T18:01:32.587Z,1.85
2023-03-31T18:04:36.666Z,2.30
2023-03-31T18:07:39.984Z,1.95
2023-03-31T18:10:44.331Z,2.28
2023-03-31T18:13:47.720Z,1.80
2023-03-31T18:16:51.146Z,1.70
2023-03-31T18:19:54.774Z,2.58
2023-03-31T18:22:58.026Z,2.00
2023-03-31T18:26:02.251Z,2.15
2023-03-31T18:29:05.507Z,2.60
2023-03-31T18:32:10.219Z,1.50
2023-03-31T18:35:13.869Z,1.52
2023-03-31T18:38:20.027Z,1.58
2023-03-31T18:41:23.834Z,1.90
2023-03-31T18:44:27.670Z,1.43
2023-03-31T18:47:31.193Z,1.65
2023-03-31T18:50:34.623Z,1.73
2023-03-31T18:53:37.944Z,1.67
2023-03-31T18:56:41.843Z,2.00
2023-03-31T18:59:45.043Z,1.87
2023-03-31T19:02:48.357Z,1.77
2023-03-31T19:05:51.458Z,2.03
2023-03-31T19:08:56.568Z,1.52
2023-03-31T19:12:00.014Z,2.00
2023-03-31T19:15:03.790Z,2.30
2023-03-31T19:18:07.246Z,2.45
2023-03-31T19:21:11.184Z,1.90
2023-03-31T19:24:14.912Z,2.08
2023-03-31T19:27:17.818Z,1.80
2023-03-31T19:30:25.189Z,1.73
2023-03-31T19:33:28.555Z,2.10
2023-03-31T19:36:31.890Z,1.90
2023-03-31T19:39:36.011Z,2.42
2023-03-31T19:42:42.264Z,2.60
2023-03-31T19:45:46.661Z,2.10
2023-03-31T19:48:50.362Z,2.08
2023-03-31T19:51:56.075Z,1.80
2023-03-31T19:55:00.942Z,1.75
2023-03-31T19:58:04.313Z,1.77
2023-03-31T20:01:14.070Z,1.90
2023-03-31T20:04:18.377Z,2.17
2023-03-31T20:07:21.878Z,2.35
2023-03-31T20:10:25.346Z,1.98
2023-03-31T20:13:28.390Z,2.25
2023-03-31T20:16:31.760Z,2.87
2023-03-31T20:19:35.276Z,3.08
2023-03-31T20:22:39.130Z,2.78
2023-03-31T20:25:43.281Z,2.90
2023-03-31T20:28:47.033Z,2.53
2023-03-31T20:31:50.589Z,2.30
2023-03-31T20:34:54.764Z,1.92
2023-03-31T20:37:58.322Z,1.90
2023-03-31T20:41:01.882Z,2.17
2023-03-31T20:44:07.604Z,2.35
2023-03-31T20:47:10.932Z,1.70
2023-03-31T20:50:14.047Z,1.80
2023-03-31T20:53:17.643Z,1.67
2023-03-31T20:56:26.821Z,1.40
2023-03-31T20:59:30.385Z,1.93
2023-03-31T21:02:33.757Z,2.00
2023-03-31T21:05:45.064Z,1.38
2023-03-31T21:08:52.733Z,1.77
2023-03-31T21:11:55.914Z,1.65
2023-03-31T21:14:59.251Z,1.90
2023-03-31T21:18:02.413Z,1.97
2023-03-31T21:21:08.854Z,1.63
2023-03-31T21:24:13.328Z,1.95
2023-03-31T21:27:16.726Z,1.73
2023-03-31T21:30:20.011Z,2.27
2023-03-31T21:33:25.113Z,2.00
2023-03-31T21:36:29.311Z,1.65
2023-03-31T21:39:32.576Z,1.80
2023-03-31T21:42:36.389Z,2.33
2023-03-31T21:45:40.806Z,1.90
2023-03-31T21:48:44.288Z,1.37
2023-03-31T21:51:47.460Z,1.35
2023-03-31T21:54:50.651Z,1.98
2023-03-31T21:57:54.470Z,1.65
2023-03-31T22:01:00.334Z,1.90
2023-03-31T22:04:03.974Z,1.77
2023-03-31T22:07:07.260Z,2.03
2023-03-31T22:10:11.069Z,1.60
2023-03-31T22:13:14.029Z,1.70
2023-03-31T22:16:20.750Z,1.57
2023-03-31T22:19:24.131Z,1.90
2023-03-31T22:22:27.393Z,1.25
2023-03-31T22:25:31.051Z,1.60
2023-03-31T22:28:34.216Z,1.73
2023-03-31T22:31:37.461Z,1.83
2023-03-31T22:34:41.946Z,1.70
2023-03-31T22:37:45.513Z,1.70
2023-03-31T22:40:49.050Z,1.90
2023-03-31T22:43:52.345Z,1.80
2023-03-31T22:46:55.990Z,2.13
2023-03-31T22:49:59.070Z,1.77
2023-03-31T22:53:02.255Z,1.98
2023-03-31T22:56:08.707Z,1.88
2023-03-31T22:59:12.162Z,1.65
2023-03-31T23:02:15.593Z,1.92
2023-03-31T23:05:19.190Z,1.60
2023-03-31T23:08:23.232Z,1.30
2023-03-31T23:11:27.488Z,1.77
2023-03-31T23:14:30.810Z,1.55
2023-03-31T23:17:33.723Z,1.20
2023-03-31T23:20:39.195Z,1.50
2023-03-31T23:23:42.918Z,1.48
2023-03-31T23:26:46.706Z,1.38
2023-03-31T23:29:49.725Z,1.40
2023-03-31T23:32:54.744Z,2.00
2023-03-31T23:36:01.080Z,2.00
2023-03-31T23:39:06.671Z,1.50
2023-03-31T23:42:12.742Z,1.88
2023-03-31T23:45:17.215Z,1.92
2023-03-31T23:48:21.340Z,1.75
2023-03-31T23:51:24.498Z,2.17
2023-03-31T23:54:27.740Z,1.95
2023-03-31T23:57:30.890Z,3.35
